Terminal Aerodrome Forecast
Issued by NWS

Home | Current Version | Previous Version | Text Only | Print | Product List | Glossary On
Versions: 1 2 3 4 5 6 7 8 9 10 11 12 13
317
FTUS43 KOAX 272335
TAFCDR
TAF
KCDR 272335Z 2800/2824 15010KT P6SM BKN060
     FM280800 33008KT P6SM OVC015
     FM281500 30013G24KT P6SM BKN080=

USA.gov is the U.S. government's official web portal to all federal, state and local government web resources and services.